sensor_id;sensor_type;location;lat;lon;timestamp;P1;durP1;ratioP1;P2;durP2;ratioP2
21315;SDS011;10817;55.820;13.030;2024-02-26T00:00:37;37.70;;;22.15;;
21315;SDS011;10817;55.820;13.030;2024-02-26T00:03:04;36.22;;;21.92;;
21315;SDS011;10817;55.820;13.030;2024-02-26T00:05:31;37.80;;;22.05;;
21315;SDS011;10817;55.820;13.030;2024-02-26T00:07:57;39.20;;;23.08;;
21315;SDS011;10817;55.820;13.030;2024-02-26T00:10:26;37.70;;;22.17;;
21315;SDS011;10817;55.820;13.030;2024-02-26T00:12:53;36.90;;;22.48;;
21315;SDS011;10817;55.820;13.030;2024-02-26T00:15:19;35.10;;;22.02;;
21315;SDS011;10817;55.820;13.030;2024-02-26T00:17:46;33.70;;;20.83;;
21315;SDS011;10817;55.820;13.030;2024-02-26T00:20:13;37.08;;;21.95;;
21315;SDS011;10817;55.820;13.030;2024-02-26T00:22:40;38.13;;;21.88;;
21315;SDS011;10817;55.820;13.030;2024-02-26T00:25:07;34.72;;;22.00;;
21315;SDS011;10817;55.820;13.030;2024-02-26T00:27:35;32.50;;;20.83;;
21315;SDS011;10817;55.820;13.030;2024-02-26T00:30:04;39.42;;;21.92;;
21315;SDS011;10817;55.820;13.030;2024-02-26T00:32:32;34.22;;;21.40;;
21315;SDS011;10817;55.820;13.030;2024-02-26T00:34:59;32.90;;;20.13;;
21315;SDS011;10817;55.820;13.030;2024-02-26T00:37:26;35.63;;;20.55;;
21315;SDS011;10817;55.820;13.030;2024-02-26T00:39:53;37.97;;;21.00;;
21315;SDS011;10817;55.820;13.030;2024-02-26T00:42:20;36.90;;;20.25;;
21315;SDS011;10817;55.820;13.030;2024-02-26T00:44:48;32.67;;;19.83;;
21315;SDS011;10817;55.820;13.030;2024-02-26T00:47:15;33.20;;;19.90;;
21315;SDS011;10817;55.820;13.030;2024-02-26T00:49:42;34.00;;;20.20;;
21315;SDS011;10817;55.820;13.030;2024-02-26T00:52:09;31.88;;;18.90;;
21315;SDS011;10817;55.820;13.030;2024-02-26T00:54:35;30.50;;;18.25;;
21315;SDS011;10817;55.820;13.030;2024-02-26T00:57:02;27.17;;;18.20;;
21315;SDS011;10817;55.820;13.030;2024-02-26T00:59:29;32.72;;;18.52;;
21315;SDS011;10817;55.820;13.030;2024-02-26T01:01:57;29.90;;;18.00;;
21315;SDS011;10817;55.820;13.030;2024-02-26T01:04:27;28.05;;;17.98;;
21315;SDS011;10817;55.820;13.030;2024-02-26T01:06:54;30.02;;;17.70;;
21315;SDS011;10817;55.820;13.030;2024-02-26T01:09:21;30.90;;;17.90;;
21315;SDS011;10817;55.820;13.030;2024-02-26T01:11:48;28.85;;;18.63;;
21315;SDS011;10817;55.820;13.030;2024-02-26T01:14:25;29.92;;;18.35;;
21315;SDS011;10817;55.820;13.030;2024-02-26T01:17:03;29.88;;;19.33;;
21315;SDS011;10817;55.820;13.030;2024-02-26T01:19:40;36.85;;;18.73;;
21315;SDS011;10817;55.820;13.030;2024-02-26T01:22:10;28.15;;;16.95;;
21315;SDS011;10817;55.820;13.030;2024-02-26T01:24:36;28.77;;;18.10;;
21315;SDS011;10817;55.820;13.030;2024-02-26T01:27:03;26.60;;;17.02;;
21315;SDS011;10817;55.820;13.030;2024-02-26T01:29:31;31.30;;;18.30;;
21315;SDS011;10817;55.820;13.030;2024-02-26T01:31:58;25.00;;;16.25;;
21315;SDS011;10817;55.820;13.030;2024-02-26T01:34:26;28.50;;;16.73;;
21315;SDS011;10817;55.820;13.030;2024-02-26T01:36:53;26.15;;;16.25;;
21315;SDS011;10817;55.820;13.030;2024-02-26T01:39:21;28.55;;;16.67;;
21315;SDS011;10817;55.820;13.030;2024-02-26T01:41:48;25.33;;;15.85;;
21315;SDS011;10817;55.820;13.030;2024-02-26T01:44:15;31.02;;;15.85;;
21315;SDS011;10817;55.820;13.030;2024-02-26T01:46:42;30.65;;;16.65;;
21315;SDS011;10817;55.820;13.030;2024-02-26T01:49:08;29.40;;;16.75;;
21315;SDS011;10817;55.820;13.030;2024-02-26T01:51:40;22.90;;;16.02;;
21315;SDS011;10817;55.820;13.030;2024-02-26T01:54:08;24.23;;;16.13;;
21315;SDS011;10817;55.820;13.030;2024-02-26T01:57:28;28.25;;;16.67;;
21315;SDS011;10817;55.820;13.030;2024-02-26T01:59:55;26.13;;;16.52;;
21315;SDS011;10817;55.820;13.030;2024-02-26T02:02:22;27.25;;;17.25;;
21315;SDS011;10817;55.820;13.030;2024-02-26T02:04:49;27.25;;;16.77;;
21315;SDS011;10817;55.820;13.030;2024-02-26T02:07:18;27.42;;;16.88;;
21315;SDS011;10817;55.820;13.030;2024-02-26T02:09:46;28.33;;;16.15;;
21315;SDS011;10817;55.820;13.030;2024-02-26T02:12:13;23.33;;;15.88;;
21315;SDS011;10817;55.820;13.030;2024-02-26T02:14:40;27.30;;;17.42;;
21315;SDS011;10817;55.820;13.030;2024-02-26T02:17:07;26.13;;;16.58;;
21315;SDS011;10817;55.820;13.030;2024-02-26T02:19:34;23.63;;;15.23;;
21315;SDS011;10817;55.820;13.030;2024-02-26T02:22:02;26.33;;;15.93;;
21315;SDS011;10817;55.820;13.030;2024-02-26T02:24:29;26.92;;;16.70;;
21315;SDS011;10817;55.820;13.030;2024-02-26T02:26:56;25.75;;;16.48;;
21315;SDS011;10817;55.820;13.030;2024-02-26T02:29:23;24.17;;;15.15;;
21315;SDS011;10817;55.820;13.030;2024-02-26T02:31:52;29.15;;;16.42;;
21315;SDS011;10817;55.820;13.030;2024-02-26T02:34:20;24.48;;;15.75;;
21315;SDS011;10817;55.820;13.030;2024-02-26T02:36:51;24.27;;;15.82;;
21315;SDS011;10817;55.820;13.030;2024-02-26T02:39:20;27.75;;;17.08;;
21315;SDS011;10817;55.820;13.030;2024-02-26T02:41:47;27.02;;;16.30;;
21315;SDS011;10817;55.820;13.030;2024-02-26T02:44:14;33.25;;;17.92;;
21315;SDS011;10817;55.820;13.030;2024-02-26T02:46:41;31.38;;;18.73;;
21315;SDS011;10817;55.820;13.030;2024-02-26T02:49:08;27.27;;;16.95;;
21315;SDS011;10817;55.820;13.030;2024-02-26T02:51:35;29.13;;;16.15;;
21315;SDS011;10817;55.820;13.030;2024-02-26T02:54:03;28.77;;;17.10;;
21315;SDS011;10817;55.820;13.030;2024-02-26T02:56:31;33.28;;;18.77;;
21315;SDS011;10817;55.820;13.030;2024-02-26T02:58:58;33.95;;;20.40;;
21315;SDS011;10817;55.820;13.030;2024-02-26T03:01:24;37.70;;;21.88;;
21315;SDS011;10817;55.820;13.030;2024-02-26T03:03:51;42.05;;;24.42;;
21315;SDS011;10817;55.820;13.030;2024-02-26T03:06:18;45.65;;;25.95;;
21315;SDS011;10817;55.820;13.030;2024-02-26T03:08:46;51.88;;;26.52;;
21315;SDS011;10817;55.820;13.030;2024-02-26T03:11:13;52.17;;;28.73;;
21315;SDS011;10817;55.820;13.030;2024-02-26T03:13:42;49.78;;;28.77;;
21315;SDS011;10817;55.820;13.030;2024-02-26T03:16:09;53.05;;;28.50;;
21315;SDS011;10817;55.820;13.030;2024-02-26T03:18:38;51.55;;;27.75;;
21315;SDS011;10817;55.820;13.030;2024-02-26T03:21:05;49.47;;;28.15;;
21315;SDS011;10817;55.820;13.030;2024-02-26T03:23:32;47.38;;;28.13;;
21315;SDS011;10817;55.820;13.030;2024-02-26T03:26:01;44.42;;;26.27;;
21315;SDS011;10817;55.820;13.030;2024-02-26T03:28:29;50.70;;;27.90;;
21315;SDS011;10817;55.820;13.030;2024-02-26T03:30:57;48.33;;;28.95;;
21315;SDS011;10817;55.820;13.030;2024-02-26T03:33:24;51.83;;;28.42;;
21315;SDS011;10817;55.820;13.030;2024-02-26T03:35:51;52.78;;;29.27;;
21315;SDS011;10817;55.820;13.030;2024-02-26T03:38:17;49.05;;;28.30;;
21315;SDS011;10817;55.820;13.030;2024-02-26T03:40:44;47.67;;;28.30;;
21315;SDS011;10817;55.820;13.030;2024-02-26T03:43:11;48.58;;;27.20;;
21315;SDS011;10817;55.820;13.030;2024-02-26T03:45:38;48.88;;;26.90;;
21315;SDS011;10817;55.820;13.030;2024-02-26T03:48:07;49.92;;;27.55;;
21315;SDS011;10817;55.820;13.030;2024-02-26T03:50:37;50.80;;;28.00;;
21315;SDS011;10817;55.820;13.030;2024-02-26T03:53:07;46.08;;;26.27;;
21315;SDS011;10817;55.820;13.030;2024-02-26T03:55:45;41.55;;;25.35;;
21315;SDS011;10817;55.820;13.030;2024-02-26T03:58:20;54.05;;;26.42;;
21315;SDS011;10817;55.820;13.030;2024-02-26T04:00:50;43.78;;;24.83;;
21315;SDS011;10817;55.820;13.030;2024-02-26T04:03:25;48.25;;;25.00;;
21315;SDS011;10817;55.820;13.030;2024-02-26T04:05:57;40.40;;;22.30;;
21315;SDS011;10817;55.820;13.030;2024-02-26T04:08:24;40.17;;;22.80;;
21315;SDS011;10817;55.820;13.030;2024-02-26T04:10:51;46.08;;;23.90;;
21315;SDS011;10817;55.820;13.030;2024-02-26T04:13:18;42.92;;;23.77;;
21315;SDS011;10817;55.820;13.030;2024-02-26T04:15:45;42.55;;;23.15;;
21315;SDS011;10817;55.820;13.030;2024-02-26T04:18:12;64.63;;;23.38;;
21315;SDS011;10817;55.820;13.030;2024-02-26T04:20:41;45.20;;;24.00;;
21315;SDS011;10817;55.820;13.030;2024-02-26T04:23:08;35.90;;;21.98;;
21315;SDS011;10817;55.820;13.030;2024-02-26T04:25:35;40.22;;;23.40;;
21315;SDS011;10817;55.820;13.030;2024-02-26T04:28:02;38.08;;;22.30;;
21315;SDS011;10817;55.820;13.030;2024-02-26T04:30:29;42.00;;;24.05;;
21315;SDS011;10817;55.820;13.030;2024-02-26T04:32:56;39.05;;;22.70;;
21315;SDS011;10817;55.820;13.030;2024-02-26T04:35:23;45.78;;;24.42;;
21315;SDS011;10817;55.820;13.030;2024-02-26T04:37:51;49.35;;;26.60;;
21315;SDS011;10817;55.820;13.030;2024-02-26T04:40:18;43.30;;;24.70;;
21315;SDS011;10817;55.820;13.030;2024-02-26T04:42:45;45.17;;;25.80;;
21315;SDS011;10817;55.820;13.030;2024-02-26T04:45:12;42.67;;;24.90;;
21315;SDS011;10817;55.820;13.030;2024-02-26T04:47:39;43.00;;;24.42;;
21315;SDS011;10817;55.820;13.030;2024-02-26T04:50:06;40.95;;;23.88;;
21315;SDS011;10817;55.820;13.030;2024-02-26T04:52:33;42.75;;;24.42;;
21315;SDS011;10817;55.820;13.030;2024-02-26T04:55:01;42.40;;;22.75;;
21315;SDS011;10817;55.820;13.030;2024-02-26T04:57:28;40.00;;;22.65;;
21315;SDS011;10817;55.820;13.030;2024-02-26T04:59:55;43.47;;;23.35;;
21315;SDS011;10817;55.820;13.030;2024-02-26T05:02:22;36.22;;;21.27;;
21315;SDS011;10817;55.820;13.030;2024-02-26T05:04:49;38.22;;;20.77;;
21315;SDS011;10817;55.820;13.030;2024-02-26T05:07:16;36.42;;;22.00;;
21315;SDS011;10817;55.820;13.030;2024-02-26T05:09:44;39.83;;;23.25;;
21315;SDS011;10817;55.820;13.030;2024-02-26T05:12:12;45.30;;;24.20;;
21315;SDS011;10817;55.820;13.030;2024-02-26T05:14:39;42.30;;;22.45;;
21315;SDS011;10817;55.820;13.030;2024-02-26T05:17:06;43.72;;;24.55;;
21315;SDS011;10817;55.820;13.030;2024-02-26T05:19:33;45.30;;;25.38;;
21315;SDS011;10817;55.820;13.030;2024-02-26T05:22:00;44.28;;;25.63;;
21315;SDS011;10817;55.820;13.030;2024-02-26T05:24:27;44.42;;;25.50;;
21315;SDS011;10817;55.820;13.030;2024-02-26T05:26:54;44.53;;;25.42;;
21315;SDS011;10817;55.820;13.030;2024-02-26T05:29:22;45.88;;;24.67;;
21315;SDS011;10817;55.820;13.030;2024-02-26T05:31:49;51.45;;;25.50;;
21315;SDS011;10817;55.820;13.030;2024-02-26T05:34:16;58.20;;;27.85;;
21315;SDS011;10817;55.820;13.030;2024-02-26T05:36:43;52.20;;;26.60;;
21315;SDS011;10817;55.820;13.030;2024-02-26T05:39:11;49.35;;;27.92;;
21315;SDS011;10817;55.820;13.030;2024-02-26T05:41:38;50.90;;;27.75;;
21315;SDS011;10817;55.820;13.030;2024-02-26T05:44:07;45.17;;;25.45;;
21315;SDS011;10817;55.820;13.030;2024-02-26T05:46:36;49.78;;;26.02;;
21315;SDS011;10817;55.820;13.030;2024-02-26T05:49:03;45.20;;;25.20;;
21315;SDS011;10817;55.820;13.030;2024-02-26T05:51:32;49.47;;;25.42;;
21315;SDS011;10817;55.820;13.030;2024-02-26T05:53:59;44.67;;;24.42;;
21315;SDS011;10817;55.820;13.030;2024-02-26T05:56:26;38.95;;;23.00;;
21315;SDS011;10817;55.820;13.030;2024-02-26T05:58:53;43.83;;;24.42;;
21315;SDS011;10817;55.820;13.030;2024-02-26T06:01:20;42.08;;;24.33;;
21315;SDS011;10817;55.820;13.030;2024-02-26T06:03:48;45.60;;;25.67;;
21315;SDS011;10817;55.820;13.030;2024-02-26T06:06:16;44.35;;;24.00;;
21315;SDS011;10817;55.820;13.030;2024-02-26T06:08:48;47.00;;;26.15;;
21315;SDS011;10817;55.820;13.030;2024-02-26T06:11:15;47.03;;;27.75;;
21315;SDS011;10817;55.820;13.030;2024-02-26T06:13:50;48.25;;;27.58;;
21315;SDS011;10817;55.820;13.030;2024-02-26T06:16:17;49.30;;;27.83;;
21315;SDS011;10817;55.820;13.030;2024-02-26T06:18:44;52.25;;;27.23;;
21315;SDS011;10817;55.820;13.030;2024-02-26T06:21:12;46.53;;;28.00;;
21315;SDS011;10817;55.820;13.030;2024-02-26T06:23:39;53.15;;;28.80;;
21315;SDS011;10817;55.820;13.030;2024-02-26T06:26:06;55.95;;;28.23;;
21315;SDS011;10817;55.820;13.030;2024-02-26T06:28:33;50.30;;;28.13;;
21315;SDS011;10817;55.820;13.030;2024-02-26T06:31:00;51.65;;;29.50;;
21315;SDS011;10817;55.820;13.030;2024-02-26T06:33:27;56.45;;;30.17;;
21315;SDS011;10817;55.820;13.030;2024-02-26T06:35:54;51.35;;;27.48;;
21315;SDS011;10817;55.820;13.030;2024-02-26T06:38:23;51.13;;;27.23;;
21315;SDS011;10817;55.820;13.030;2024-02-26T06:40:49;46.85;;;26.65;;
21315;SDS011;10817;55.820;13.030;2024-02-26T06:43:16;53.10;;;28.90;;
21315;SDS011;10817;55.820;13.030;2024-02-26T06:45:43;48.65;;;27.35;;
21315;SDS011;10817;55.820;13.030;2024-02-26T06:48:10;49.95;;;26.77;;
21315;SDS011;10817;55.820;13.030;2024-02-26T06:50:37;50.15;;;26.98;;
21315;SDS011;10817;55.820;13.030;2024-02-26T06:53:04;52.42;;;27.27;;
21315;SDS011;10817;55.820;13.030;2024-02-26T06:55:33;48.72;;;27.13;;
21315;SDS011;10817;55.820;13.030;2024-02-26T06:58:02;47.08;;;26.25;;
21315;SDS011;10817;55.820;13.030;2024-02-26T07:00:29;43.70;;;25.48;;
21315;SDS011;10817;55.820;13.030;2024-02-26T07:02:56;45.00;;;25.95;;
21315;SDS011;10817;55.820;13.030;2024-02-26T07:05:23;51.28;;;27.58;;
21315;SDS011;10817;55.820;13.030;2024-02-26T07:07:50;47.92;;;26.67;;
21315;SDS011;10817;55.820;13.030;2024-02-26T07:10:17;56.28;;;29.98;;
21315;SDS011;10817;55.820;13.030;2024-02-26T07:12:45;50.38;;;26.65;;
21315;SDS011;10817;55.820;13.030;2024-02-26T07:15:12;49.88;;;26.73;;
21315;SDS011;10817;55.820;13.030;2024-02-26T07:17:40;52.72;;;26.80;;
21315;SDS011;10817;55.820;13.030;2024-02-26T07:20:12;48.38;;;26.73;;
21315;SDS011;10817;55.820;13.030;2024-02-26T07:22:49;56.83;;;28.42;;
21315;SDS011;10817;55.820;13.030;2024-02-26T07:25:19;47.95;;;26.77;;
21315;SDS011;10817;55.820;13.030;2024-02-26T07:27:48;53.25;;;26.88;;
21315;SDS011;10817;55.820;13.030;2024-02-26T07:30:15;54.65;;;28.50;;
21315;SDS011;10817;55.820;13.030;2024-02-26T07:32:42;50.75;;;27.50;;
21315;SDS011;10817;55.820;13.030;2024-02-26T07:35:09;51.33;;;28.30;;
21315;SDS011;10817;55.820;13.030;2024-02-26T07:37:39;60.75;;;28.83;;
21315;SDS011;10817;55.820;13.030;2024-02-26T07:40:07;61.30;;;30.08;;
21315;SDS011;10817;55.820;13.030;2024-02-26T07:42:34;59.72;;;30.45;;
21315;SDS011;10817;55.820;13.030;2024-02-26T07:45:03;64.82;;;32.20;;
21315;SDS011;10817;55.820;13.030;2024-02-26T07:47:30;62.15;;;31.88;;
21315;SDS011;10817;55.820;13.030;2024-02-26T07:49:56;61.85;;;31.38;;
21315;SDS011;10817;55.820;13.030;2024-02-26T07:52:23;63.80;;;32.33;;
21315;SDS011;10817;55.820;13.030;2024-02-26T07:54:50;60.88;;;31.90;;
21315;SDS011;10817;55.820;13.030;2024-02-26T07:57:17;64.35;;;31.95;;
21315;SDS011;10817;55.820;13.030;2024-02-26T07:59:46;61.00;;;32.13;;
21315;SDS011;10817;55.820;13.030;2024-02-26T08:02:16;62.15;;;31.55;;
21315;SDS011;10817;55.820;13.030;2024-02-26T08:04:43;57.85;;;31.40;;
21315;SDS011;10817;55.820;13.030;2024-02-26T08:09:56;57.92;;;30.63;;
21315;SDS011;10817;55.820;13.030;2024-02-26T08:12:23;62.50;;;32.22;;
21315;SDS011;10817;55.820;13.030;2024-02-26T08:14:50;55.70;;;31.13;;
21315;SDS011;10817;55.820;13.030;2024-02-26T08:17:19;56.75;;;30.10;;
21315;SDS011;10817;55.820;13.030;2024-02-26T08:19:45;57.83;;;30.67;;
21315;SDS011;10817;55.820;13.030;2024-02-26T08:22:12;52.58;;;29.98;;
21315;SDS011;10817;55.820;13.030;2024-02-26T08:24:41;54.53;;;30.02;;
21315;SDS011;10817;55.820;13.030;2024-02-26T08:27:08;56.33;;;28.67;;
21315;SDS011;10817;55.820;13.030;2024-02-26T08:29:37;51.22;;;29.85;;
21315;SDS011;10817;55.820;13.030;2024-02-26T08:32:04;52.42;;;29.88;;
21315;SDS011;10817;55.820;13.030;2024-02-26T08:34:33;55.67;;;30.60;;
21315;SDS011;10817;55.820;13.030;2024-02-26T08:37:00;48.75;;;28.13;;
21315;SDS011;10817;55.820;13.030;2024-02-26T08:39:27;43.03;;;27.42;;
21315;SDS011;10817;55.820;13.030;2024-02-26T08:41:54;48.55;;;27.23;;
21315;SDS011;10817;55.820;13.030;2024-02-26T08:44:21;48.03;;;26.08;;
21315;SDS011;10817;55.820;13.030;2024-02-26T08:46:48;39.60;;;24.33;;
21315;SDS011;10817;55.820;13.030;2024-02-26T08:49:16;38.40;;;23.80;;
21315;SDS011;10817;55.820;13.030;2024-02-26T08:51:44;36.78;;;22.48;;
21315;SDS011;10817;55.820;13.030;2024-02-26T08:54:11;31.48;;;21.58;;
21315;SDS011;10817;55.820;13.030;2024-02-26T08:56:38;30.05;;;20.13;;
21315;SDS011;10817;55.820;13.030;2024-02-26T08:59:04;30.67;;;19.80;;
21315;SDS011;10817;55.820;13.030;2024-02-26T09:01:31;29.92;;;19.85;;
21315;SDS011;10817;55.820;13.030;2024-02-26T09:03:58;22.90;;;16.55;;
21315;SDS011;10817;55.820;13.030;2024-02-26T09:06:25;22.58;;;16.67;;
21315;SDS011;10817;55.820;13.030;2024-02-26T09:08:54;28.80;;;17.38;;
21315;SDS011;10817;55.820;13.030;2024-02-26T09:11:21;28.60;;;17.58;;
21315;SDS011;10817;55.820;13.030;2024-02-26T09:13:47;24.15;;;17.50;;
21315;SDS011;10817;55.820;13.030;2024-02-26T09:16:14;25.38;;;18.42;;
21315;SDS011;10817;55.820;13.030;2024-02-26T09:18:41;24.70;;;17.65;;
21315;SDS011;10817;55.820;13.030;2024-02-26T09:21:08;26.30;;;18.05;;
21315;SDS011;10817;55.820;13.030;2024-02-26T09:23:35;26.70;;;17.83;;
21315;SDS011;10817;55.820;13.030;2024-02-26T09:26:03;24.30;;;16.85;;
21315;SDS011;10817;55.820;13.030;2024-02-26T09:28:31;22.95;;;15.75;;
21315;SDS011;10817;55.820;13.030;2024-02-26T09:31:02;29.52;;;17.70;;
21315;SDS011;10817;55.820;13.030;2024-02-26T09:33:29;33.83;;;20.20;;
21315;SDS011;10817;55.820;13.030;2024-02-26T09:35:56;27.27;;;17.98;;
21315;SDS011;10817;55.820;13.030;2024-02-26T09:38:26;27.35;;;17.52;;
21315;SDS011;10817;55.820;13.030;2024-02-26T09:40:55;22.83;;;16.23;;
21315;SDS011;10817;55.820;13.030;2024-02-26T09:43:24;29.15;;;18.27;;
21315;SDS011;10817;55.820;13.030;2024-02-26T09:45:54;26.67;;;17.15;;
21315;SDS011;10817;55.820;13.030;2024-02-26T09:48:21;25.77;;;16.67;;
21315;SDS011;10817;55.820;13.030;2024-02-26T09:50:49;22.45;;;16.00;;
21315;SDS011;10817;55.820;13.030;2024-02-26T09:53:17;21.90;;;16.05;;
21315;SDS011;10817;55.820;13.030;2024-02-26T09:55:47;23.23;;;16.33;;
21315;SDS011;10817;55.820;13.030;2024-02-26T09:58:15;21.92;;;15.23;;
21315;SDS011;10817;55.820;13.030;2024-02-26T10:00:46;20.63;;;15.45;;
21315;SDS011;10817;55.820;13.030;2024-02-26T10:03:24;20.75;;;15.32;;
21315;SDS011;10817;55.820;13.030;2024-02-26T10:05:54;22.60;;;15.05;;
21315;SDS011;10817;55.820;13.030;2024-02-26T10:08:22;21.15;;;15.40;;
21315;SDS011;10817;55.820;13.030;2024-02-26T10:10:51;19.58;;;13.95;;
21315;SDS011;10817;55.820;13.030;2024-02-26T10:13:19;17.00;;;12.95;;
21315;SDS011;10817;55.820;13.030;2024-02-26T10:15:47;18.90;;;13.30;;
21315;SDS011;10817;55.820;13.030;2024-02-26T10:18:14;18.42;;;12.57;;
21315;SDS011;10817;55.820;13.030;2024-02-26T10:20:41;18.63;;;13.35;;
21315;SDS011;10817;55.820;13.030;2024-02-26T10:23:08;20.67;;;14.30;;
21315;SDS011;10817;55.820;13.030;2024-02-26T10:25:36;16.45;;;11.57;;
21315;SDS011;10817;55.820;13.030;2024-02-26T10:28:03;17.48;;;11.70;;
21315;SDS011;10817;55.820;13.030;2024-02-26T10:30:30;15.60;;;11.68;;
21315;SDS011;10817;55.820;13.030;2024-02-26T10:32:58;17.25;;;11.70;;
21315;SDS011;10817;55.820;13.030;2024-02-26T10:35:25;14.27;;;10.57;;
21315;SDS011;10817;55.820;13.030;2024-02-26T10:37:53;12.27;;;9.38;;
21315;SDS011;10817;55.820;13.030;2024-02-26T10:40:20;10.68;;;8.40;;
21315;SDS011;10817;55.820;13.030;2024-02-26T10:42:47;9.77;;;7.18;;
21315;SDS011;10817;55.820;13.030;2024-02-26T10:45:14;12.52;;;8.80;;
21315;SDS011;10817;55.820;13.030;2024-02-26T10:47:41;9.95;;;7.10;;
21315;SDS011;10817;55.820;13.030;2024-02-26T10:50:09;10.30;;;7.32;;
21315;SDS011;10817;55.820;13.030;2024-02-26T10:52:40;9.40;;;6.88;;
21315;SDS011;10817;55.820;13.030;2024-02-26T10:55:08;9.35;;;7.25;;
21315;SDS011;10817;55.820;13.030;2024-02-26T10:57:43;8.88;;;6.90;;
21315;SDS011;10817;55.820;13.030;2024-02-26T11:00:13;9.75;;;5.93;;
21315;SDS011;10817;55.820;13.030;2024-02-26T11:02:41;8.07;;;5.80;;
21315;SDS011;10817;55.820;13.030;2024-02-26T11:05:11;8.30;;;6.10;;
21315;SDS011;10817;55.820;13.030;2024-02-26T11:07:39;6.65;;;5.95;;
21315;SDS011;10817;55.820;13.030;2024-02-26T11:10:08;9.52;;;6.35;;
21315;SDS011;10817;55.820;13.030;2024-02-26T11:12:37;7.45;;;5.35;;
21315;SDS011;10817;55.820;13.030;2024-02-26T11:15:05;6.00;;;4.50;;
21315;SDS011;10817;55.820;13.030;2024-02-26T11:17:38;8.65;;;5.45;;
21315;SDS011;10817;55.820;13.030;2024-02-26T11:20:09;6.05;;;5.45;;
21315;SDS011;10817;55.820;13.030;2024-02-26T11:22:40;8.52;;;5.93;;
21315;SDS011;10817;55.820;13.030;2024-02-26T11:25:07;12.20;;;5.85;;
21315;SDS011;10817;55.820;13.030;2024-02-26T11:27:37;7.20;;;5.03;;
21315;SDS011;10817;55.820;13.030;2024-02-26T11:30:08;5.65;;;4.90;;
21315;SDS011;10817;55.820;13.030;2024-02-26T11:32:37;8.00;;;5.00;;
21315;SDS011;10817;55.820;13.030;2024-02-26T11:35:06;7.90;;;5.22;;
21315;SDS011;10817;55.820;13.030;2024-02-26T11:37:37;5.50;;;4.93;;
21315;SDS011;10817;55.820;13.030;2024-02-26T11:40:04;7.43;;;5.38;;
21315;SDS011;10817;55.820;13.030;2024-02-26T11:42:37;6.93;;;5.22;;
21315;SDS011;10817;55.820;13.030;2024-02-26T11:48:11;5.82;;;5.25;;
21315;SDS011;10817;55.820;13.030;2024-02-26T11:50:39;6.40;;;5.60;;
21315;SDS011;10817;55.820;13.030;2024-02-26T11:53:22;6.63;;;5.20;;
21315;SDS011;10817;55.820;13.030;2024-02-26T11:58:53;6.22;;;5.20;;
21315;SDS011;10817;55.820;13.030;2024-02-26T12:01:37;6.38;;;5.40;;
21315;SDS011;10817;55.820;13.030;2024-02-26T12:04:05;7.30;;;5.05;;
21315;SDS011;10817;55.820;13.030;2024-02-26T12:06:39;6.47;;;4.97;;
21315;SDS011;10817;55.820;13.030;2024-02-26T12:09:09;5.65;;;5.07;;
21315;SDS011;10817;55.820;13.030;2024-02-26T12:11:38;6.72;;;5.70;;
21315;SDS011;10817;55.820;13.030;2024-02-26T12:14:05;5.75;;;4.75;;
21315;SDS011;10817;55.820;13.030;2024-02-26T12:16:34;7.13;;;4.68;;
21315;SDS011;10817;55.820;13.030;2024-02-26T12:19:03;6.10;;;5.30;;
21315;SDS011;10817;55.820;13.030;2024-02-26T12:21:32;8.27;;;4.88;;
21315;SDS011;10817;55.820;13.030;2024-02-26T12:24:10;5.45;;;4.57;;
21315;SDS011;10817;55.820;13.030;2024-02-26T12:26:39;7.60;;;5.05;;
21315;SDS011;10817;55.820;13.030;2024-02-26T12:29:06;5.32;;;4.80;;
21315;SDS011;10817;55.820;13.030;2024-02-26T12:31:34;5.53;;;4.55;;
21315;SDS011;10817;55.820;13.030;2024-02-26T12:34:03;6.72;;;4.28;;
21315;SDS011;10817;55.820;13.030;2024-02-26T12:36:31;6.07;;;4.55;;
21315;SDS011;10817;55.820;13.030;2024-02-26T12:38:59;5.78;;;4.25;;
21315;SDS011;10817;55.820;13.030;2024-02-26T12:41:28;5.63;;;4.28;;
21315;SDS011;10817;55.820;13.030;2024-02-26T12:43:56;5.70;;;4.53;;
21315;SDS011;10817;55.820;13.030;2024-02-26T12:46:23;4.38;;;3.50;;
21315;SDS011;10817;55.820;13.030;2024-02-26T12:48:50;4.25;;;3.50;;
21315;SDS011;10817;55.820;13.030;2024-02-26T12:51:19;4.95;;;3.75;;
21315;SDS011;10817;55.820;13.030;2024-02-26T12:53:46;4.22;;;3.30;;
21315;SDS011;10817;55.820;13.030;2024-02-26T12:56:15;3.47;;;3.17;;
21315;SDS011;10817;55.820;13.030;2024-02-26T12:58:44;5.72;;;3.20;;
21315;SDS011;10817;55.820;13.030;2024-02-26T13:01:14;3.42;;;3.13;;
21315;SDS011;10817;55.820;13.030;2024-02-26T13:03:41;3.03;;;2.60;;
21315;SDS011;10817;55.820;13.030;2024-02-26T13:06:09;5.18;;;2.92;;
21315;SDS011;10817;55.820;13.030;2024-02-26T13:08:36;3.20;;;2.60;;
21315;SDS011;10817;55.820;13.030;2024-02-26T13:11:03;3.22;;;2.70;;
21315;SDS011;10817;55.820;13.030;2024-02-26T13:13:30;3.38;;;2.70;;
21315;SDS011;10817;55.820;13.030;2024-02-26T13:16:02;3.17;;;2.33;;
21315;SDS011;10817;55.820;13.030;2024-02-26T13:18:31;2.40;;;2.20;;
21315;SDS011;10817;55.820;13.030;2024-02-26T13:21:08;2.25;;;1.75;;
21315;SDS011;10817;55.820;13.030;2024-02-26T13:23:36;2.38;;;1.70;;
21315;SDS011;10817;55.820;13.030;2024-02-26T13:26:04;2.22;;;1.80;;
21315;SDS011;10817;55.820;13.030;2024-02-26T13:28:31;2.20;;;2.00;;
21315;SDS011;10817;55.820;13.030;2024-02-26T13:30:58;3.05;;;2.50;;
21315;SDS011;10817;55.820;13.030;2024-02-26T13:33:27;2.33;;;2.13;;
21315;SDS011;10817;55.820;13.030;2024-02-26T13:35:55;3.15;;;2.17;;
21315;SDS011;10817;55.820;13.030;2024-02-26T13:38:23;3.45;;;2.20;;
21315;SDS011;10817;55.820;13.030;2024-02-26T13:40:50;2.47;;;2.00;;
21315;SDS011;10817;55.820;13.030;2024-02-26T13:43:17;2.20;;;2.00;;
21315;SDS011;10817;55.820;13.030;2024-02-26T13:45:44;3.50;;;2.30;;
21315;SDS011;10817;55.820;13.030;2024-02-26T13:48:12;2.85;;;2.55;;
21315;SDS011;10817;55.820;13.030;2024-02-26T13:50:41;3.13;;;2.67;;
21315;SDS011;10817;55.820;13.030;2024-02-26T13:53:10;3.80;;;2.60;;
21315;SDS011;10817;55.820;13.030;2024-02-26T13:55:37;3.25;;;2.60;;
21315;SDS011;10817;55.820;13.030;2024-02-26T13:58:07;5.97;;;2.78;;
21315;SDS011;10817;55.820;13.030;2024-02-26T14:00:34;3.45;;;2.85;;
21315;SDS011;10817;55.820;13.030;2024-02-26T14:03:02;3.83;;;2.60;;
21315;SDS011;10817;55.820;13.030;2024-02-26T14:05:29;3.33;;;3.00;;
21315;SDS011;10817;55.820;13.030;2024-02-26T14:07:58;4.07;;;2.80;;
21315;SDS011;10817;55.820;13.030;2024-02-26T14:10:25;4.03;;;3.00;;
21315;SDS011;10817;55.820;13.030;2024-02-26T14:12:52;5.35;;;3.10;;
21315;SDS011;10817;55.820;13.030;2024-02-26T14:15:19;4.32;;;3.08;;
21315;SDS011;10817;55.820;13.030;2024-02-26T14:17:46;4.70;;;2.65;;
21315;SDS011;10817;55.820;13.030;2024-02-26T14:20:18;5.50;;;2.58;;
21315;SDS011;10817;55.820;13.030;2024-02-26T14:22:46;3.47;;;2.60;;
21315;SDS011;10817;55.820;13.030;2024-02-26T14:25:14;2.50;;;2.22;;
21315;SDS011;10817;55.820;13.030;2024-02-26T14:27:41;2.42;;;2.17;;
21315;SDS011;10817;55.820;13.030;2024-02-26T14:30:08;2.88;;;2.50;;